Wedgefield, SC

2:38 PM EST on January 22, 2017 (GMT -0500)
Banbury | | Change Station

Elev 233 ft 33.94 °N, 80.48 °W | Updated 11 seconds ago

Mostly Cloudy
Mostly Cloudy
63.3 °F
Feels Like 63.3 °F
N
0.0
Wind Variable Wind from SSW
Gusts 0.0 mph

Today
High -- | Low -- °F
--% Chance of Precip.
Yesterday
High -- | Low -- °F
Precip. -- in
Pressure 29.48 in
Visibility 10.0 miles
Clouds Mostly Cloudy 1400 ft
Dew Point 60 °F
Humidity 89%
Rainfall 0.33 in
Snow Depth Not available.
7:24 AM 5:43 PM
Waning Crescent, 24% visible
SPECI KSSC 221908Z AUTO 17009KT 10SM BKN014 18/14 A2948 RMK AO2 CIG 014V190 BKN V FEW $
Pressure 29.48 in
Visibility 10.0 miles
Clouds Mostly Cloudy 1400 ft
Dew Point 60 °F
Humidity 89%
Rainfall 0.33 in
Snow Depth Not available.
7:24 AM 5:43 PM
Waning Crescent, 24% visible
SPECI KSSC 221908Z AUTO 17009KT 10SM BKN014 18/14 A2948 RMK AO2 CIG 014V190 BKN V FEW $

Get Your Daily Forecast Email!

Thanks for signing up!

Be on the lookout for a verification email in your inbox.

You'll start receiving the daily forecast at 8 AM.

×

10-Day Weather Forecast

Almanac

Astronomy

Jan. 22, 2017 Rise Set
Actual Time
Civil Twilight
Nautical Twilight
Astronomical Twilight
Moon
Length of Visible Light
Length of Day
Tomorrow will be .
, % of the Moon is Illuminated

Today's Extremes

State Highs State Lows

Community

WunderPhotos

Upload Photos

1,962,540 photos uploaded!

WunderBlog® & News

Nearby

Air Quality

  Air Quality AQ Index Pollutant
Not available.

Snow Depth

Station Depth Elevation

Earthquake Activity

City Distance Mag. Time & Date
Minimum magnitude displayed is 2.5.

Coastal Water Temperatures

Place Temperature

Stations

Nearby Weather Stations

Station Location Temp. Windchill Dew Point Humidity Wind Precip. Elev Updated Type
                   

Watches & Warnings

Lake Wind Advisory
Issued: 2:02 PM EST Jan. 22, 2017 – National Weather Service

... Lake Wind Advisory remains in effect until 7 PM EST Monday...

* timing... this afternoon through Monday.

* Winds... southwest 15 to 25 knots this afternoon and tonight...
and southwest to west 15 to 25 knots Monday.

* Impacts... hazardous conditions will occur on area lakes.

Precautionary/preparedness actions...

A lake Wind Advisory indicates that winds will cause rough chop
on area lakes. Small boats will be especially prone to capsizing.





Small Craft Advisory
Issued: 2:30 PM EST Jan. 22, 2017 – National Weather Service

... Small Craft Advisory remains in effect until 1 am EST
Tuesday...

* impacts... wind and or wave conditions will be hazardous to
small craft.

Precautionary/preparedness actions...

During a Small Craft Advisory... inexperienced mariners...
especially those operating smaller vessels... should avoid
navigating in hazardous conditions.